sensor_id;sensor_type;location;lat;lon;timestamp;P1;durP1;ratioP1;P2;durP2;ratioP2
22289;SDS011;11313;50.116;8.424;2024-02-23T00:01:35;0.30;;;0.30;;
22289;SDS011;11313;50.116;8.424;2024-02-23T00:04:01;0.43;;;0.40;;
22289;SDS011;11313;50.116;8.424;2024-02-23T00:06:27;1.10;;;0.30;;
22289;SDS011;11313;50.116;8.424;2024-02-23T00:08:53;0.50;;;0.30;;
22289;SDS011;11313;50.116;8.424;2024-02-23T00:11:20;1.40;;;0.77;;
22289;SDS011;11313;50.116;8.424;2024-02-23T00:13:45;0.90;;;0.40;;
22289;SDS011;11313;50.116;8.424;2024-02-23T00:16:11;1.35;;;0.38;;
22289;SDS011;11313;50.116;8.424;2024-02-23T00:18:37;0.75;;;0.50;;
22289;SDS011;11313;50.116;8.424;2024-02-23T00:21:03;0.93;;;0.50;;
22289;SDS011;11313;50.116;8.424;2024-02-23T00:23:28;0.63;;;0.30;;
22289;SDS011;11313;50.116;8.424;2024-02-23T00:25:54;0.57;;;0.47;;
22289;SDS011;11313;50.116;8.424;2024-02-23T00:28:20;0.40;;;0.30;;
22289;SDS011;11313;50.116;8.424;2024-02-23T00:30:45;0.38;;;0.38;;
22289;SDS011;11313;50.116;8.424;2024-02-23T00:33:11;0.75;;;0.40;;
22289;SDS011;11313;50.116;8.424;2024-02-23T00:35:36;0.60;;;0.50;;
22289;SDS011;11313;50.116;8.424;2024-02-23T00:38:02;0.95;;;0.45;;
22289;SDS011;11313;50.116;8.424;2024-02-23T00:40:27;0.52;;;0.20;;
22289;SDS011;11313;50.116;8.424;2024-02-23T00:42:53;0.52;;;0.40;;
22289;SDS011;11313;50.116;8.424;2024-02-23T00:45:18;0.32;;;0.32;;
22289;SDS011;11313;50.116;8.424;2024-02-23T00:47:44;0.50;;;0.40;;
22289;SDS011;11313;50.116;8.424;2024-02-23T00:50:11;0.90;;;0.40;;
22289;SDS011;11313;50.116;8.424;2024-02-23T00:52:37;0.40;;;0.30;;
22289;SDS011;11313;50.116;8.424;2024-02-23T00:55:03;0.60;;;0.50;;
22289;SDS011;11313;50.116;8.424;2024-02-23T00:57:28;0.40;;;0.40;;
22289;SDS011;11313;50.116;8.424;2024-02-23T00:59:57;0.90;;;0.30;;
22289;SDS011;11313;50.116;8.424;2024-02-23T01:02:23;0.75;;;0.50;;
22289;SDS011;11313;50.116;8.424;2024-02-23T01:04:49;0.30;;;0.30;;
22289;SDS011;11313;50.116;8.424;2024-02-23T01:07:14;0.40;;;0.40;;
22289;SDS011;11313;50.116;8.424;2024-02-23T01:09:40;0.45;;;0.35;;
22289;SDS011;11313;50.116;8.424;2024-02-23T01:12:05;0.40;;;0.30;;
22289;SDS011;11313;50.116;8.424;2024-02-23T01:14:31;0.50;;;0.32;;
22289;SDS011;11313;50.116;8.424;2024-02-23T01:16:57;1.08;;;0.30;;
22289;SDS011;11313;50.116;8.424;2024-02-23T01:19:22;0.40;;;0.40;;
22289;SDS011;11313;50.116;8.424;2024-02-23T01:21:48;0.60;;;0.30;;
22289;SDS011;11313;50.116;8.424;2024-02-23T01:24:20;0.32;;;0.28;;
22289;SDS011;11313;50.116;8.424;2024-02-23T01:26:46;0.98;;;0.20;;
22289;SDS011;11313;50.116;8.424;2024-02-23T01:29:11;0.40;;;0.30;;
22289;SDS011;11313;50.116;8.424;2024-02-23T01:31:37;0.35;;;0.30;;
22289;SDS011;11313;50.116;8.424;2024-02-23T01:34:03;0.80;;;0.38;;
22289;SDS011;11313;50.116;8.424;2024-02-23T01:36:28;0.35;;;0.30;;
22289;SDS011;11313;50.116;8.424;2024-02-23T01:38:53;0.28;;;0.28;;
22289;SDS011;11313;50.116;8.424;2024-02-23T01:41:19;0.80;;;0.30;;
22289;SDS011;11313;50.116;8.424;2024-02-23T01:43:45;0.30;;;0.22;;
22289;SDS011;11313;50.116;8.424;2024-02-23T01:46:10;0.40;;;0.30;;
22289;SDS011;11313;50.116;8.424;2024-02-23T01:48:36;0.50;;;0.30;;
22289;SDS011;11313;50.116;8.424;2024-02-23T01:51:02;0.30;;;0.28;;
22289;SDS011;11313;50.116;8.424;2024-02-23T01:53:27;0.63;;;0.40;;
22289;SDS011;11313;50.116;8.424;2024-02-23T01:55:53;0.30;;;0.22;;
22289;SDS011;11313;50.116;8.424;2024-02-23T01:58:19;0.40;;;0.30;;
22289;SDS011;11313;50.116;8.424;2024-02-23T02:00:45;0.25;;;0.22;;
22289;SDS011;11313;50.116;8.424;2024-02-23T02:03:11;0.35;;;0.30;;
22289;SDS011;11313;50.116;8.424;2024-02-23T02:05:36;0.50;;;0.40;;
22289;SDS011;11313;50.116;8.424;2024-02-23T02:08:02;0.30;;;0.30;;
22289;SDS011;11313;50.116;8.424;2024-02-23T02:10:29;0.43;;;0.40;;
22289;SDS011;11313;50.116;8.424;2024-02-23T02:12:54;0.50;;;0.30;;
22289;SDS011;11313;50.116;8.424;2024-02-23T02:15:20;0.38;;;0.30;;
22289;SDS011;11313;50.116;8.424;2024-02-23T02:17:47;0.30;;;0.30;;
22289;SDS011;11313;50.116;8.424;2024-02-23T02:20:12;0.30;;;0.30;;
22289;SDS011;11313;50.116;8.424;2024-02-23T02:22:38;0.20;;;0.20;;
22289;SDS011;11313;50.116;8.424;2024-02-23T02:25:05;0.20;;;0.20;;
22289;SDS011;11313;50.116;8.424;2024-02-23T02:27:31;0.57;;;0.32;;
22289;SDS011;11313;50.116;8.424;2024-02-23T02:29:57;0.45;;;0.20;;
22289;SDS011;11313;50.116;8.424;2024-02-23T02:32:22;0.35;;;0.30;;
22289;SDS011;11313;50.116;8.424;2024-02-23T02:34:48;0.75;;;0.30;;
22289;SDS011;11313;50.116;8.424;2024-02-23T02:37:13;0.77;;;0.40;;
22289;SDS011;11313;50.116;8.424;2024-02-23T02:39:39;0.40;;;0.30;;
22289;SDS011;11313;50.116;8.424;2024-02-23T02:42:04;0.20;;;0.20;;
22289;SDS011;11313;50.116;8.424;2024-02-23T02:44:30;0.75;;;0.30;;
22289;SDS011;11313;50.116;8.424;2024-02-23T02:46:59;0.30;;;0.30;;
22289;SDS011;11313;50.116;8.424;2024-02-23T02:49:24;0.32;;;0.30;;
22289;SDS011;11313;50.116;8.424;2024-02-23T02:51:50;0.50;;;0.30;;
22289;SDS011;11313;50.116;8.424;2024-02-23T02:54:15;0.20;;;0.20;;
22289;SDS011;11313;50.116;8.424;2024-02-23T02:56:42;0.82;;;0.28;;
22289;SDS011;11313;50.116;8.424;2024-02-23T02:59:08;0.47;;;0.30;;
22289;SDS011;11313;50.116;8.424;2024-02-23T03:01:35;0.68;;;0.30;;
22289;SDS011;11313;50.116;8.424;2024-02-23T03:04:00;0.47;;;0.28;;
22289;SDS011;11313;50.116;8.424;2024-02-23T03:06:26;0.32;;;0.30;;
22289;SDS011;11313;50.116;8.424;2024-02-23T03:08:51;0.85;;;0.30;;
22289;SDS011;11313;50.116;8.424;2024-02-23T03:11:17;0.20;;;0.20;;
22289;SDS011;11313;50.116;8.424;2024-02-23T03:13:42;0.30;;;0.30;;
22289;SDS011;11313;50.116;8.424;2024-02-23T03:16:14;0.40;;;0.20;;
22289;SDS011;11313;50.116;8.424;2024-02-23T03:18:42;0.25;;;0.20;;
22289;SDS011;11313;50.116;8.424;2024-02-23T03:21:08;0.70;;;0.30;;
22289;SDS011;11313;50.116;8.424;2024-02-23T03:23:34;0.43;;;0.20;;
22289;SDS011;11313;50.116;8.424;2024-02-23T03:26:00;0.45;;;0.30;;
22289;SDS011;11313;50.116;8.424;2024-02-23T03:28:26;0.40;;;0.30;;
22289;SDS011;11313;50.116;8.424;2024-02-23T03:30:52;0.20;;;0.20;;
22289;SDS011;11313;50.116;8.424;2024-02-23T03:33:17;0.77;;;0.28;;
22289;SDS011;11313;50.116;8.424;2024-02-23T03:35:43;0.40;;;0.30;;
22289;SDS011;11313;50.116;8.424;2024-02-23T03:38:08;0.40;;;0.30;;
22289;SDS011;11313;50.116;8.424;2024-02-23T03:40:33;0.95;;;0.30;;
22289;SDS011;11313;50.116;8.424;2024-02-23T03:43:00;0.28;;;0.20;;
22289;SDS011;11313;50.116;8.424;2024-02-23T03:45:27;0.30;;;0.20;;
22289;SDS011;11313;50.116;8.424;2024-02-23T03:47:52;0.30;;;0.30;;
22289;SDS011;11313;50.116;8.424;2024-02-23T03:50:18;0.57;;;0.25;;
22289;SDS011;11313;50.116;8.424;2024-02-23T03:52:43;1.33;;;0.30;;
22289;SDS011;11313;50.116;8.424;2024-02-23T03:55:09;0.28;;;0.28;;
22289;SDS011;11313;50.116;8.424;2024-02-23T03:57:34;0.20;;;0.20;;
22289;SDS011;11313;50.116;8.424;2024-02-23T04:00:00;0.30;;;0.20;;
22289;SDS011;11313;50.116;8.424;2024-02-23T04:02:25;0.38;;;0.30;;
22289;SDS011;11313;50.116;8.424;2024-02-23T04:04:51;0.25;;;0.25;;
22289;SDS011;11313;50.116;8.424;2024-02-23T04:07:16;0.28;;;0.20;;
22289;SDS011;11313;50.116;8.424;2024-02-23T04:09:42;0.20;;;0.20;;
22289;SDS011;11313;50.116;8.424;2024-02-23T04:12:07;0.68;;;0.30;;
22289;SDS011;11313;50.116;8.424;2024-02-23T04:14:33;0.30;;;0.20;;
22289;SDS011;11313;50.116;8.424;2024-02-23T04:17:01;0.50;;;0.30;;
22289;SDS011;11313;50.116;8.424;2024-02-23T04:19:30;0.73;;;0.20;;
22289;SDS011;11313;50.116;8.424;2024-02-23T04:21:55;0.20;;;0.20;;
22289;SDS011;11313;50.116;8.424;2024-02-23T04:24:21;0.65;;;0.38;;
22289;SDS011;11313;50.116;8.424;2024-02-23T04:26:46;0.28;;;0.28;;
22289;SDS011;11313;50.116;8.424;2024-02-23T04:29:12;0.40;;;0.30;;
22289;SDS011;11313;50.116;8.424;2024-02-23T04:31:37;0.30;;;0.30;;
22289;SDS011;11313;50.116;8.424;2024-02-23T04:34:03;0.20;;;0.20;;
22289;SDS011;11313;50.116;8.424;2024-02-23T04:36:29;0.50;;;0.28;;
22289;SDS011;11313;50.116;8.424;2024-02-23T04:38:54;0.50;;;0.30;;
22289;SDS011;11313;50.116;8.424;2024-02-23T04:41:20;0.57;;;0.30;;
22289;SDS011;11313;50.116;8.424;2024-02-23T04:43:47;0.20;;;0.20;;
22289;SDS011;11313;50.116;8.424;2024-02-23T04:46:12;0.80;;;0.20;;
22289;SDS011;11313;50.116;8.424;2024-02-23T04:48:38;0.40;;;0.30;;
22289;SDS011;11313;50.116;8.424;2024-02-23T04:51:03;0.35;;;0.22;;
22289;SDS011;11313;50.116;8.424;2024-02-23T04:53:29;0.17;;;0.17;;
22289;SDS011;11313;50.116;8.424;2024-02-23T04:55:55;0.30;;;0.30;;
22289;SDS011;11313;50.116;8.424;2024-02-23T04:58:20;0.40;;;0.30;;
22289;SDS011;11313;50.116;8.424;2024-02-23T05:00:47;0.35;;;0.25;;
22289;SDS011;11313;50.116;8.424;2024-02-23T05:03:12;0.85;;;0.20;;
22289;SDS011;11313;50.116;8.424;2024-02-23T05:05:38;0.20;;;0.13;;
22289;SDS011;11313;50.116;8.424;2024-02-23T05:08:03;0.77;;;0.38;;
22289;SDS011;11313;50.116;8.424;2024-02-23T05:10:30;0.50;;;0.25;;
22289;SDS011;11313;50.116;8.424;2024-02-23T05:12:55;0.50;;;0.30;;
22289;SDS011;11313;50.116;8.424;2024-02-23T05:15:21;0.55;;;0.30;;
22289;SDS011;11313;50.116;8.424;2024-02-23T05:17:46;0.20;;;0.20;;
22289;SDS011;11313;50.116;8.424;2024-02-23T05:20:12;0.47;;;0.28;;
22289;SDS011;11313;50.116;8.424;2024-02-23T05:22:39;0.28;;;0.20;;
22289;SDS011;11313;50.116;8.424;2024-02-23T05:25:05;0.30;;;0.20;;
22289;SDS011;11313;50.116;8.424;2024-02-23T05:27:31;0.70;;;0.20;;
22289;SDS011;11313;50.116;8.424;2024-02-23T05:29:57;0.10;;;0.10;;
22289;SDS011;11313;50.116;8.424;2024-02-23T05:32:22;0.95;;;0.30;;
22289;SDS011;11313;50.116;8.424;2024-02-23T05:34:48;0.45;;;0.25;;
22289;SDS011;11313;50.116;8.424;2024-02-23T05:37:16;0.30;;;0.30;;
22289;SDS011;11313;50.116;8.424;2024-02-23T05:39:42;0.30;;;0.20;;
22289;SDS011;11313;50.116;8.424;2024-02-23T05:42:07;0.20;;;0.20;;
22289;SDS011;11313;50.116;8.424;2024-02-23T05:44:33;0.20;;;0.20;;
22289;SDS011;11313;50.116;8.424;2024-02-23T05:46:58;0.98;;;0.20;;
22289;SDS011;11313;50.116;8.424;2024-02-23T05:49:24;0.30;;;0.20;;
22289;SDS011;11313;50.116;8.424;2024-02-23T05:51:49;0.20;;;0.20;;
22289;SDS011;11313;50.116;8.424;2024-02-23T05:54:15;0.20;;;0.20;;
22289;SDS011;11313;50.116;8.424;2024-02-23T05:56:40;0.70;;;0.20;;
22289;SDS011;11313;50.116;8.424;2024-02-23T05:59:06;0.30;;;0.17;;
22289;SDS011;11313;50.116;8.424;2024-02-23T06:01:32;2.08;;;0.30;;
22289;SDS011;11313;50.116;8.424;2024-02-23T06:03:58;0.20;;;0.20;;
22289;SDS011;11313;50.116;8.424;2024-02-23T06:06:23;0.30;;;0.22;;
22289;SDS011;11313;50.116;8.424;2024-02-23T06:08:49;0.28;;;0.15;;
22289;SDS011;11313;50.116;8.424;2024-02-23T06:11:14;0.28;;;0.20;;
22289;SDS011;11313;50.116;8.424;2024-02-23T06:13:40;0.40;;;0.15;;
22289;SDS011;11313;50.116;8.424;2024-02-23T06:16:09;0.35;;;0.20;;
22289;SDS011;11313;50.116;8.424;2024-02-23T06:18:36;1.65;;;0.20;;
22289;SDS011;11313;50.116;8.424;2024-02-23T06:21:10;1.50;;;0.25;;
22289;SDS011;11313;50.116;8.424;2024-02-23T06:23:37;0.25;;;0.25;;
22289;SDS011;11313;50.116;8.424;2024-02-23T06:26:02;1.00;;;0.30;;
22289;SDS011;11313;50.116;8.424;2024-02-23T06:28:28;0.40;;;0.20;;
22289;SDS011;11313;50.116;8.424;2024-02-23T06:30:53;0.95;;;0.30;;
22289;SDS011;11313;50.116;8.424;2024-02-23T06:33:19;0.68;;;0.22;;
22289;SDS011;11313;50.116;8.424;2024-02-23T06:35:44;0.25;;;0.20;;
22289;SDS011;11313;50.116;8.424;2024-02-23T06:38:10;0.50;;;0.25;;
22289;SDS011;11313;50.116;8.424;2024-02-23T06:40:36;0.65;;;0.30;;
22289;SDS011;11313;50.116;8.424;2024-02-23T06:43:01;0.52;;;0.20;;
22289;SDS011;11313;50.116;8.424;2024-02-23T06:45:35;0.68;;;0.40;;
22289;SDS011;11313;50.116;8.424;2024-02-23T06:48:01;1.00;;;0.30;;
22289;SDS011;11313;50.116;8.424;2024-02-23T06:50:26;0.63;;;0.40;;
22289;SDS011;11313;50.116;8.424;2024-02-23T06:52:52;1.65;;;0.50;;
22289;SDS011;11313;50.116;8.424;2024-02-23T06:55:17;0.98;;;0.40;;
22289;SDS011;11313;50.116;8.424;2024-02-23T06:57:43;1.10;;;0.38;;
22289;SDS011;11313;50.116;8.424;2024-02-23T07:00:08;2.28;;;0.50;;
22289;SDS011;11313;50.116;8.424;2024-02-23T07:02:34;0.45;;;0.40;;
22289;SDS011;11313;50.116;8.424;2024-02-23T07:05:01;0.55;;;0.30;;
22289;SDS011;11313;50.116;8.424;2024-02-23T07:07:31;0.95;;;0.40;;
22289;SDS011;11313;50.116;8.424;2024-02-23T07:09:58;0.93;;;0.50;;
22289;SDS011;11313;50.116;8.424;2024-02-23T07:12:24;0.70;;;0.55;;
22289;SDS011;11313;50.116;8.424;2024-02-23T07:14:52;1.10;;;0.40;;
22289;SDS011;11313;50.116;8.424;2024-02-23T07:17:18;2.40;;;0.50;;
22289;SDS011;11313;50.116;8.424;2024-02-23T07:19:44;0.68;;;0.50;;
22289;SDS011;11313;50.116;8.424;2024-02-23T07:22:10;3.08;;;0.60;;
22289;SDS011;11313;50.116;8.424;2024-02-23T07:24:39;2.03;;;0.52;;
22289;SDS011;11313;50.116;8.424;2024-02-23T07:27:05;1.98;;;0.50;;
22289;SDS011;11313;50.116;8.424;2024-02-23T07:29:31;1.58;;;0.60;;
22289;SDS011;11313;50.116;8.424;2024-02-23T07:31:56;3.15;;;0.73;;
22289;SDS011;11313;50.116;8.424;2024-02-23T07:34:22;2.17;;;0.70;;
22289;SDS011;11313;50.116;8.424;2024-02-23T07:36:47;1.30;;;0.65;;
22289;SDS011;11313;50.116;8.424;2024-02-23T07:39:16;1.95;;;0.57;;
22289;SDS011;11313;50.116;8.424;2024-02-23T07:41:42;1.52;;;0.60;;
22289;SDS011;11313;50.116;8.424;2024-02-23T07:44:08;1.63;;;0.73;;
22289;SDS011;11313;50.116;8.424;2024-02-23T07:46:33;1.58;;;0.60;;
22289;SDS011;11313;50.116;8.424;2024-02-23T07:48:59;3.28;;;0.70;;
22289;SDS011;11313;50.116;8.424;2024-02-23T07:51:24;2.25;;;0.77;;
22289;SDS011;11313;50.116;8.424;2024-02-23T07:53:50;3.53;;;0.55;;
22289;SDS011;11313;50.116;8.424;2024-02-23T07:56:15;2.50;;;0.60;;
22289;SDS011;11313;50.116;8.424;2024-02-23T07:58:41;1.55;;;0.60;;
22289;SDS011;11313;50.116;8.424;2024-02-23T08:01:07;1.05;;;0.68;;
22289;SDS011;11313;50.116;8.424;2024-02-23T08:03:32;1.70;;;0.88;;
22289;SDS011;11313;50.116;8.424;2024-02-23T08:05:58;2.13;;;0.50;;
22289;SDS011;11313;50.116;8.424;2024-02-23T08:08:24;1.20;;;0.60;;
22289;SDS011;11313;50.116;8.424;2024-02-23T08:10:50;1.75;;;0.85;;
22289;SDS011;11313;50.116;8.424;2024-02-23T08:13:16;0.90;;;0.57;;
22289;SDS011;11313;50.116;8.424;2024-02-23T08:15:42;1.27;;;0.70;;
22289;SDS011;11313;50.116;8.424;2024-02-23T08:18:08;2.17;;;0.75;;
22289;SDS011;11313;50.116;8.424;2024-02-23T08:20:35;1.42;;;0.73;;
22289;SDS011;11313;50.116;8.424;2024-02-23T08:23:01;1.13;;;0.60;;
22289;SDS011;11313;50.116;8.424;2024-02-23T08:25:27;1.80;;;0.70;;
22289;SDS011;11313;50.116;8.424;2024-02-23T08:27:54;1.45;;;0.60;;
22289;SDS011;11313;50.116;8.424;2024-02-23T08:30:24;1.40;;;0.50;;
22289;SDS011;11313;50.116;8.424;2024-02-23T08:32:49;1.17;;;0.60;;
22289;SDS011;11313;50.116;8.424;2024-02-23T08:35:15;0.95;;;0.50;;
22289;SDS011;11313;50.116;8.424;2024-02-23T08:37:40;1.58;;;0.70;;
22289;SDS011;11313;50.116;8.424;2024-02-23T08:40:07;1.73;;;0.68;;
22289;SDS011;11313;50.116;8.424;2024-02-23T08:42:33;1.20;;;0.70;;
22289;SDS011;11313;50.116;8.424;2024-02-23T08:44:59;2.13;;;0.60;;
22289;SDS011;11313;50.116;8.424;2024-02-23T08:47:25;1.70;;;0.60;;
22289;SDS011;11313;50.116;8.424;2024-02-23T08:49:53;1.48;;;0.65;;
22289;SDS011;11313;50.116;8.424;2024-02-23T08:52:18;1.13;;;0.57;;
22289;SDS011;11313;50.116;8.424;2024-02-23T08:54:44;0.95;;;0.50;;
22289;SDS011;11313;50.116;8.424;2024-02-23T08:57:09;1.75;;;0.52;;
22289;SDS011;11313;50.116;8.424;2024-02-23T08:59:35;1.70;;;0.77;;
22289;SDS011;11313;50.116;8.424;2024-02-23T09:02:00;1.80;;;0.60;;
22289;SDS011;11313;50.116;8.424;2024-02-23T09:04:27;1.92;;;0.60;;
22289;SDS011;11313;50.116;8.424;2024-02-23T09:06:53;1.77;;;0.90;;
22289;SDS011;11313;50.116;8.424;2024-02-23T09:09:18;1.55;;;0.60;;
22289;SDS011;11313;50.116;8.424;2024-02-23T09:11:44;2.00;;;0.60;;
22289;SDS011;11313;50.116;8.424;2024-02-23T09:14:09;1.85;;;0.90;;
22289;SDS011;11313;50.116;8.424;2024-02-23T09:16:35;1.02;;;0.70;;
22289;SDS011;11313;50.116;8.424;2024-02-23T09:19:00;1.35;;;0.65;;
22289;SDS011;11313;50.116;8.424;2024-02-23T09:21:26;1.25;;;0.60;;
22289;SDS011;11313;50.116;8.424;2024-02-23T09:23:51;1.48;;;0.80;;
22289;SDS011;11313;50.116;8.424;2024-02-23T09:26:17;1.35;;;0.70;;
22289;SDS011;11313;50.116;8.424;2024-02-23T09:28:43;1.38;;;0.60;;
22289;SDS011;11313;50.116;8.424;2024-02-23T09:31:10;1.27;;;0.80;;
22289;SDS011;11313;50.116;8.424;2024-02-23T09:33:35;1.08;;;0.75;;
22289;SDS011;11313;50.116;8.424;2024-02-23T09:36:01;1.67;;;0.70;;
22289;SDS011;11313;50.116;8.424;2024-02-23T09:38:27;1.88;;;0.65;;
22289;SDS011;11313;50.116;8.424;2024-02-23T09:40:52;2.55;;;0.90;;
22289;SDS011;11313;50.116;8.424;2024-02-23T09:43:19;1.25;;;0.80;;
22289;SDS011;11313;50.116;8.424;2024-02-23T09:45:47;1.63;;;0.75;;
22289;SDS011;11313;50.116;8.424;2024-02-23T09:48:17;1.10;;;0.60;;
22289;SDS011;11313;50.116;8.424;2024-02-23T09:50:44;1.80;;;0.82;;
22289;SDS011;11313;50.116;8.424;2024-02-23T09:53:11;1.10;;;0.70;;
22289;SDS011;11313;50.116;8.424;2024-02-23T09:55:38;0.80;;;0.60;;
22289;SDS011;11313;50.116;8.424;2024-02-23T09:58:03;2.63;;;0.80;;
22289;SDS011;11313;50.116;8.424;2024-02-23T10:00:31;1.73;;;0.63;;
22289;SDS011;11313;50.116;8.424;2024-02-23T10:02:58;1.80;;;0.70;;
22289;SDS011;11313;50.116;8.424;2024-02-23T10:05:26;1.27;;;0.68;;
22289;SDS011;11313;50.116;8.424;2024-02-23T10:07:55;1.15;;;0.73;;
22289;SDS011;11313;50.116;8.424;2024-02-23T10:10:24;2.15;;;0.70;;
22289;SDS011;11313;50.116;8.424;2024-02-23T10:12:54;1.35;;;0.80;;
22289;SDS011;11313;50.116;8.424;2024-02-23T10:15:20;1.02;;;0.80;;
22289;SDS011;11313;50.116;8.424;2024-02-23T10:17:45;1.08;;;0.70;;
22289;SDS011;11313;50.116;8.424;2024-02-23T10:20:11;1.85;;;0.90;;
22289;SDS011;11313;50.116;8.424;2024-02-23T10:22:36;1.70;;;0.70;;
22289;SDS011;11313;50.116;8.424;2024-02-23T10:25:02;0.95;;;0.70;;
22289;SDS011;11313;50.116;8.424;2024-02-23T10:27:27;1.30;;;0.77;;
22289;SDS011;11313;50.116;8.424;2024-02-23T10:29:53;1.08;;;0.80;;
22289;SDS011;11313;50.116;8.424;2024-02-23T10:32:19;0.63;;;0.50;;
22289;SDS011;11313;50.116;8.424;2024-02-23T10:34:47;1.20;;;0.75;;
22289;SDS011;11313;50.116;8.424;2024-02-23T10:37:16;1.25;;;0.65;;
22289;SDS011;11313;50.116;8.424;2024-02-23T10:39:42;1.15;;;0.70;;
22289;SDS011;11313;50.116;8.424;2024-02-23T10:42:08;1.15;;;0.60;;
22289;SDS011;11313;50.116;8.424;2024-02-23T10:44:36;1.98;;;0.70;;
22289;SDS011;11313;50.116;8.424;2024-02-23T10:47:02;1.17;;;0.60;;
22289;SDS011;11313;50.116;8.424;2024-02-23T10:49:30;1.83;;;0.60;;
22289;SDS011;11313;50.116;8.424;2024-02-23T10:51:56;1.92;;;0.60;;
22289;SDS011;11313;50.116;8.424;2024-02-23T10:54:22;1.40;;;0.73;;
22289;SDS011;11313;50.116;8.424;2024-02-23T10:56:49;1.13;;;0.68;;
22289;SDS011;11313;50.116;8.424;2024-02-23T10:59:16;1.80;;;0.80;;
22289;SDS011;11313;50.116;8.424;2024-02-23T11:01:44;1.40;;;0.70;;
22289;SDS011;11313;50.116;8.424;2024-02-23T11:04:12;0.73;;;0.60;;
22289;SDS011;11313;50.116;8.424;2024-02-23T11:06:38;1.25;;;0.75;;
22289;SDS011;11313;50.116;8.424;2024-02-23T11:09:08;1.15;;;0.80;;
22289;SDS011;11313;50.116;8.424;2024-02-23T11:11:37;1.73;;;0.70;;
22289;SDS011;11313;50.116;8.424;2024-02-23T11:14:03;2.08;;;1.00;;
22289;SDS011;11313;50.116;8.424;2024-02-23T11:16:33;2.78;;;0.90;;
22289;SDS011;11313;50.116;8.424;2024-02-23T11:19:05;0.80;;;0.57;;
22289;SDS011;11313;50.116;8.424;2024-02-23T11:21:35;1.67;;;0.80;;
22289;SDS011;11313;50.116;8.424;2024-02-23T11:24:02;1.10;;;0.70;;
22289;SDS011;11313;50.116;8.424;2024-02-23T11:26:29;1.58;;;0.82;;
22289;SDS011;11313;50.116;8.424;2024-02-23T11:29:09;0.82;;;0.70;;
22289;SDS011;11313;50.116;8.424;2024-02-23T11:31:36;1.70;;;0.68;;
22289;SDS011;11313;50.116;8.424;2024-02-23T11:34:10;1.02;;;0.65;;
22289;SDS011;11313;50.116;8.424;2024-02-23T11:36:36;1.35;;;0.85;;
22289;SDS011;11313;50.116;8.424;2024-02-23T11:39:04;1.88;;;0.80;;
22289;SDS011;11313;50.116;8.424;2024-02-23T11:41:30;1.05;;;0.52;;
22289;SDS011;11313;50.116;8.424;2024-02-23T11:43:56;1.45;;;0.95;;
22289;SDS011;11313;50.116;8.424;2024-02-23T11:46:23;2.17;;;0.70;;
22289;SDS011;11313;50.116;8.424;2024-02-23T11:48:48;2.05;;;0.65;;
22289;SDS011;11313;50.116;8.424;2024-02-23T11:51:21;1.20;;;0.90;;
22289;SDS011;11313;50.116;8.424;2024-02-23T11:53:48;0.75;;;0.57;;
22289;SDS011;11313;50.116;8.424;2024-02-23T11:56:14;1.65;;;0.80;;
22289;SDS011;11313;50.116;8.424;2024-02-23T11:58:40;1.00;;;0.60;;
22289;SDS011;11313;50.116;8.424;2024-02-23T12:01:06;2.25;;;0.80;;
22289;SDS011;11313;50.116;8.424;2024-02-23T12:03:32;1.02;;;0.80;;
22289;SDS011;11313;50.116;8.424;2024-02-23T12:05:58;1.52;;;0.68;;
22289;SDS011;11313;50.116;8.424;2024-02-23T12:08:25;0.98;;;0.70;;
22289;SDS011;11313;50.116;8.424;2024-02-23T12:10:54;1.48;;;0.88;;
22289;SDS011;11313;50.116;8.424;2024-02-23T12:13:20;1.00;;;0.70;;
22289;SDS011;11313;50.116;8.424;2024-02-23T12:15:46;1.23;;;0.75;;
22289;SDS011;11313;50.116;8.424;2024-02-23T12:18:12;2.05;;;0.88;;
22289;SDS011;11313;50.116;8.424;2024-02-23T12:20:39;1.00;;;0.60;;
22289;SDS011;11313;50.116;8.424;2024-02-23T12:23:05;1.27;;;0.70;;
22289;SDS011;11313;50.116;8.424;2024-02-23T12:25:32;1.25;;;0.70;;
22289;SDS011;11313;50.116;8.424;2024-02-23T12:27:58;2.17;;;0.80;;
22289;SDS011;11313;50.116;8.424;2024-02-23T12:30:25;1.10;;;0.70;;
22289;SDS011;11313;50.116;8.424;2024-02-23T12:33:02;1.13;;;0.68;;
22289;SDS011;11313;50.116;8.424;2024-02-23T12:35:40;2.03;;;0.70;;
22289;SDS011;11313;50.116;8.424;2024-02-23T12:38:05;2.25;;;0.60;;
22289;SDS011;11313;50.116;8.424;2024-02-23T12:40:31;2.35;;;0.80;;
22289;SDS011;11313;50.116;8.424;2024-02-23T12:42:56;1.10;;;0.70;;
22289;SDS011;11313;50.116;8.424;2024-02-23T12:45:22;1.08;;;0.60;;
22289;SDS011;11313;50.116;8.424;2024-02-23T12:47:47;1.42;;;0.75;;
22289;SDS011;11313;50.116;8.424;2024-02-23T12:50:13;1.10;;;0.70;;
22289;SDS011;11313;50.116;8.424;2024-02-23T12:52:38;1.58;;;0.77;;
22289;SDS011;11313;50.116;8.424;2024-02-23T12:55:04;1.55;;;0.70;;
22289;SDS011;11313;50.116;8.424;2024-02-23T12:57:30;1.23;;;0.80;;
22289;SDS011;11313;50.116;8.424;2024-02-23T12:59:55;1.52;;;0.73;;
22289;SDS011;11313;50.116;8.424;2024-02-23T13:02:20;3.15;;;0.80;;
22289;SDS011;11313;50.116;8.424;2024-02-23T13:04:46;3.20;;;0.90;;
22289;SDS011;11313;50.116;8.424;2024-02-23T13:07:16;2.60;;;0.77;;
22289;SDS011;11313;50.116;8.424;2024-02-23T13:09:42;1.15;;;0.70;;
22289;SDS011;11313;50.116;8.424;2024-02-23T13:12:08;1.50;;;0.70;;
22289;SDS011;11313;50.116;8.424;2024-02-23T13:14:33;1.42;;;0.80;;
22289;SDS011;11313;50.116;8.424;2024-02-23T13:16:59;0.85;;;0.60;;
22289;SDS011;11313;50.116;8.424;2024-02-23T13:19:24;1.60;;;0.68;;
22289;SDS011;11313;50.116;8.424;2024-02-23T13:21:50;1.17;;;0.70;;
22289;SDS011;11313;50.116;8.424;2024-02-23T13:24:15;1.38;;;0.80;;
22289;SDS011;11313;50.116;8.424;2024-02-23T13:26:41;1.17;;;0.55;;
22289;SDS011;11313;50.116;8.424;2024-02-23T13:29:07;1.13;;;0.60;;
22289;SDS011;11313;50.116;8.424;2024-02-23T13:31:32;1.60;;;0.75;;
22289;SDS011;11313;50.116;8.424;2024-02-23T13:33:58;1.15;;;0.60;;
22289;SDS011;11313;50.116;8.424;2024-02-23T13:36:23;2.28;;;0.60;;
22289;SDS011;11313;50.116;8.424;2024-02-23T13:38:48;1.10;;;0.68;;
22289;SDS011;11313;50.116;8.424;2024-02-23T13:41:16;1.55;;;0.75;;
22289;SDS011;11313;50.116;8.424;2024-02-23T13:43:41;0.93;;;0.60;;
22289;SDS011;11313;50.116;8.424;2024-02-23T13:46:07;0.88;;;0.52;;
22289;SDS011;11313;50.116;8.424;2024-02-23T13:48:32;2.25;;;0.70;;
22289;SDS011;11313;50.116;8.424;2024-02-23T13:50:58;1.15;;;0.60;;
22289;SDS011;11313;50.116;8.424;2024-02-23T13:53:28;1.20;;;0.60;;
22289;SDS011;11313;50.116;8.424;2024-02-23T13:55:54;3.05;;;0.70;;
22289;SDS011;11313;50.116;8.424;2024-02-23T13:58:20;1.23;;;0.73;;
22289;SDS011;11313;50.116;8.424;2024-02-23T14:00:45;1.48;;;0.60;;
22289;SDS011;11313;50.116;8.424;2024-02-23T14:03:12;1.10;;;0.63;;
22289;SDS011;11313;50.116;8.424;2024-02-23T14:05:43;1.55;;;0.60;;
22289;SDS011;11313;50.116;8.424;2024-02-23T14:08:09;1.20;;;0.55;;
22289;SDS011;11313;50.116;8.424;2024-02-23T14:10:35;1.02;;;0.60;;
22289;SDS011;11313;50.116;8.424;2024-02-23T14:13:01;3.40;;;0.68;;
22289;SDS011;11313;50.116;8.424;2024-02-23T14:15:26;1.48;;;0.70;;
22289;SDS011;11313;50.116;8.424;2024-02-23T14:17:52;1.90;;;0.60;;
22289;SDS011;11313;50.116;8.424;2024-02-23T14:20:18;1.42;;;0.77;;
22289;SDS011;11313;50.116;8.424;2024-02-23T14:22:43;2.13;;;0.80;;
22289;SDS011;11313;50.116;8.424;2024-02-23T14:25:09;1.33;;;0.55;;
22289;SDS011;11313;50.116;8.424;2024-02-23T14:27:34;1.38;;;0.80;;
22289;SDS011;11313;50.116;8.424;2024-02-23T14:30:00;1.95;;;0.60;;
22289;SDS011;11313;50.116;8.424;2024-02-23T14:32:26;1.70;;;0.60;;
22289;SDS011;11313;50.116;8.424;2024-02-23T14:34:51;1.88;;;0.70;;
22289;SDS011;11313;50.116;8.424;2024-02-23T14:37:17;1.65;;;0.63;;
22289;SDS011;11313;50.116;8.424;2024-02-23T14:39:42;1.30;;;0.60;;
22289;SDS011;11313;50.116;8.424;2024-02-23T14:42:08;1.60;;;0.70;;